sensor_id;sensor_type;location;lat;lon;timestamp;pressure;altitude;pressure_sealevel;temperature;humidity
61898;BME280;47850;50.274;18.908;2023-03-19T00:00:25;98186.52;;;4.65;39.13
61898;BME280;47850;50.274;18.908;2023-03-19T00:03:33;98183.83;;;4.61;39.44
61898;BME280;47850;50.274;18.908;2023-03-19T00:06:02;98187.56;;;4.60;39.76
61898;BME280;47850;50.274;18.908;2023-03-19T00:08:30;98187.02;;;4.59;40.10
61898;BME280;47850;50.274;18.908;2023-03-19T00:10:58;98189.96;;;4.58;40.32
61898;BME280;47850;50.274;18.908;2023-03-19T00:13:26;98187.42;;;4.56;40.76
61898;BME280;47850;50.274;18.908;2023-03-19T00:15:53;98188.55;;;4.57;40.80
61898;BME280;47850;50.274;18.908;2023-03-19T00:18:21;98182.71;;;4.60;41.08
61898;BME280;47850;50.274;18.908;2023-03-19T00:20:49;98179.98;;;4.63;41.25
61898;BME280;47850;50.274;18.908;2023-03-19T00:23:17;98178.40;;;4.66;41.31
61898;BME280;47850;50.274;18.908;2023-03-19T00:25:45;98179.68;;;4.67;41.64
61898;BME280;47850;50.274;18.908;2023-03-19T00:28:12;98181.68;;;4.68;41.84
61898;BME280;47850;50.274;18.908;2023-03-19T00:30:40;98182.12;;;4.68;42.06
61898;BME280;47850;50.274;18.908;2023-03-19T00:33:08;98180.77;;;4.68;42.14
61898;BME280;47850;50.274;18.908;2023-03-19T00:35:38;98177.29;;;4.69;42.53
61898;BME280;47850;50.274;18.908;2023-03-19T00:38:06;98172.73;;;4.71;42.59
61898;BME280;47850;50.274;18.908;2023-03-19T00:40:34;98171.73;;;4.72;42.92
61898;BME280;47850;50.274;18.908;2023-03-19T00:43:02;98169.18;;;4.72;43.00
61898;BME280;47850;50.274;18.908;2023-03-19T00:45:30;98169.02;;;4.72;43.20
61898;BME280;47850;50.274;18.908;2023-03-19T00:47:58;98167.02;;;4.70;43.50
61898;BME280;47850;50.274;18.908;2023-03-19T00:50:26;98168.92;;;4.69;43.64
61898;BME280;47850;50.274;18.908;2023-03-19T00:52:54;98168.99;;;4.67;43.83
61898;BME280;47850;50.274;18.908;2023-03-19T00:55:22;98169.65;;;4.66;44.00
61898;BME280;47850;50.274;18.908;2023-03-19T00:57:50;98173.92;;;4.65;44.19
61898;BME280;47850;50.274;18.908;2023-03-19T01:00:19;98171.94;;;4.62;44.58
61898;BME280;47850;50.274;18.908;2023-03-19T01:02:47;98172.23;;;4.60;44.98
61898;BME280;47850;50.274;18.908;2023-03-19T01:05:14;98172.02;;;4.58;45.12
61898;BME280;47850;50.274;18.908;2023-03-19T01:07:43;98169.21;;;4.57;45.47
61898;BME280;47850;50.274;18.908;2023-03-19T01:10:11;98168.15;;;4.55;45.39
61898;BME280;47850;50.274;18.908;2023-03-19T01:12:39;98171.83;;;4.54;45.53
61898;BME280;47850;50.274;18.908;2023-03-19T01:15:07;98172.36;;;4.55;45.67
61898;BME280;47850;50.274;18.908;2023-03-19T01:17:35;98175.75;;;4.57;45.79
61898;BME280;47850;50.274;18.908;2023-03-19T01:20:04;98174.13;;;4.59;45.95
61898;BME280;47850;50.274;18.908;2023-03-19T01:22:35;98174.16;;;4.59;45.99
61898;BME280;47850;50.274;18.908;2023-03-19T01:25:04;98170.98;;;4.59;46.06
61898;BME280;47850;50.274;18.908;2023-03-19T01:27:32;98174.60;;;4.59;46.52
61898;BME280;47850;50.274;18.908;2023-03-19T01:30:00;98169.73;;;4.60;46.37
61898;BME280;47850;50.274;18.908;2023-03-19T01:32:28;98175.61;;;4.61;46.34
61898;BME280;47850;50.274;18.908;2023-03-19T01:34:56;98173.63;;;4.60;46.32
61898;BME280;47850;50.274;18.908;2023-03-19T01:37:24;98171.86;;;4.58;46.59
61898;BME280;47850;50.274;18.908;2023-03-19T01:39:51;98166.78;;;4.56;46.87
61898;BME280;47850;50.274;18.908;2023-03-19T01:42:19;98165.71;;;4.55;46.80
61898;BME280;47850;50.274;18.908;2023-03-19T01:44:48;98168.86;;;4.53;47.00
61898;BME280;47850;50.274;18.908;2023-03-19T01:47:18;98168.61;;;4.51;47.11
61898;BME280;47850;50.274;18.908;2023-03-19T01:49:53;98168.89;;;4.49;47.42
61898;BME280;47850;50.274;18.908;2023-03-19T01:52:24;98166.27;;;4.44;47.65
61898;BME280;47850;50.274;18.908;2023-03-19T01:54:55;98161.17;;;4.40;48.01
61898;BME280;47850;50.274;18.908;2023-03-19T01:57:24;98162.05;;;4.37;48.23
61898;BME280;47850;50.274;18.908;2023-03-19T01:59:54;98165.30;;;4.33;48.46
61898;BME280;47850;50.274;18.908;2023-03-19T02:02:24;98168.73;;;4.28;48.95
61898;BME280;47850;50.274;18.908;2023-03-19T02:05:00;98166.96;;;4.24;48.79
61898;BME280;47850;50.274;18.908;2023-03-19T02:07:31;98163.10;;;4.20;49.05
61898;BME280;47850;50.274;18.908;2023-03-19T02:10:00;98161.88;;;4.18;49.37
61898;BME280;47850;50.274;18.908;2023-03-19T02:12:28;98162.98;;;4.13;49.53
61898;BME280;47850;50.274;18.908;2023-03-19T02:14:56;98167.63;;;4.10;49.56
61898;BME280;47850;50.274;18.908;2023-03-19T02:17:24;98168.61;;;4.08;49.84
61898;BME280;47850;50.274;18.908;2023-03-19T02:20:03;98167.65;;;4.06;50.09
61898;BME280;47850;50.274;18.908;2023-03-19T02:22:36;98171.77;;;4.03;50.45
61898;BME280;47850;50.274;18.908;2023-03-19T02:25:15;98175.55;;;4.03;50.87
61898;BME280;47850;50.274;18.908;2023-03-19T02:27:47;98177.70;;;4.02;50.84
61898;BME280;47850;50.274;18.908;2023-03-19T02:30:25;98178.84;;;4.00;51.05
61898;BME280;47850;50.274;18.908;2023-03-19T02:32:54;98178.09;;;3.98;51.15
61898;BME280;47850;50.274;18.908;2023-03-19T02:35:22;98179.84;;;3.97;51.43
61898;BME280;47850;50.274;18.908;2023-03-19T02:37:49;98181.45;;;3.98;51.57
61898;BME280;47850;50.274;18.908;2023-03-19T02:40:28;98180.58;;;4.00;51.81
61898;BME280;47850;50.274;18.908;2023-03-19T02:42:57;98183.98;;;4.01;51.87
61898;BME280;47850;50.274;18.908;2023-03-19T02:45:29;98185.05;;;4.02;52.01
61898;BME280;47850;50.274;18.908;2023-03-19T02:47:58;98182.83;;;4.01;51.97
61898;BME280;47850;50.274;18.908;2023-03-19T02:50:26;98188.18;;;4.00;52.24
61898;BME280;47850;50.274;18.908;2023-03-19T02:52:54;98192.45;;;3.96;52.15
61898;BME280;47850;50.274;18.908;2023-03-19T02:55:22;98188.80;;;3.92;52.40
61898;BME280;47850;50.274;18.908;2023-03-19T02:57:50;98194.11;;;3.87;52.52
61898;BME280;47850;50.274;18.908;2023-03-19T03:00:18;98191.20;;;3.82;52.65
61898;BME280;47850;50.274;18.908;2023-03-19T03:02:47;98196.66;;;3.77;52.78
61898;BME280;47850;50.274;18.908;2023-03-19T03:05:15;98196.46;;;3.72;52.69
61898;BME280;47850;50.274;18.908;2023-03-19T03:07:43;98196.73;;;3.70;52.77
61898;BME280;47850;50.274;18.908;2023-03-19T03:10:11;98202.74;;;3.68;53.06
61898;BME280;47850;50.274;18.908;2023-03-19T03:12:39;98202.90;;;3.66;52.75
61898;BME280;47850;50.274;18.908;2023-03-19T03:15:07;98197.45;;;3.63;52.55
61898;BME280;47850;50.274;18.908;2023-03-19T03:17:36;98196.92;;;3.61;52.23
61898;BME280;47850;50.274;18.908;2023-03-19T03:20:06;98199.18;;;3.58;51.74
61898;BME280;47850;50.274;18.908;2023-03-19T03:22:34;98199.20;;;3.55;51.36
61898;BME280;47850;50.274;18.908;2023-03-19T03:25:02;98200.71;;;3.53;51.13
61898;BME280;47850;50.274;18.908;2023-03-19T03:27:31;98201.58;;;3.51;51.27
61898;BME280;47850;50.274;18.908;2023-03-19T03:29:59;98201.36;;;3.49;51.45
61898;BME280;47850;50.274;18.908;2023-03-19T03:32:27;98204.17;;;3.47;51.35
61898;BME280;47850;50.274;18.908;2023-03-19T03:34:55;98201.52;;;3.46;51.19
61898;BME280;47850;50.274;18.908;2023-03-19T03:37:22;98202.29;;;3.44;51.20
61898;BME280;47850;50.274;18.908;2023-03-19T03:39:50;98202.71;;;3.43;51.51
61898;BME280;47850;50.274;18.908;2023-03-19T03:42:19;98199.70;;;3.41;51.35
61898;BME280;47850;50.274;18.908;2023-03-19T03:44:47;98198.95;;;3.39;51.46
61898;BME280;47850;50.274;18.908;2023-03-19T03:47:15;98195.23;;;3.37;51.51
61898;BME280;47850;50.274;18.908;2023-03-19T03:49:44;98196.36;;;3.35;51.68
61898;BME280;47850;50.274;18.908;2023-03-19T03:52:12;98198.10;;;3.34;51.97
61898;BME280;47850;50.274;18.908;2023-03-19T03:54:39;98198.85;;;3.33;52.20
61898;BME280;47850;50.274;18.908;2023-03-19T03:57:07;98195.30;;;3.31;52.10
61898;BME280;47850;50.274;18.908;2023-03-19T03:59:35;98196.15;;;3.30;52.13
61898;BME280;47850;50.274;18.908;2023-03-19T04:02:03;98199.71;;;3.28;52.10
61898;BME280;47850;50.274;18.908;2023-03-19T04:04:31;98195.35;;;3.26;52.02
61898;BME280;47850;50.274;18.908;2023-03-19T04:06:59;98193.23;;;3.24;51.95
61898;BME280;47850;50.274;18.908;2023-03-19T04:09:26;98199.07;;;3.21;52.04
61898;BME280;47850;50.274;18.908;2023-03-19T04:11:54;98199.66;;;3.19;52.43
61898;BME280;47850;50.274;18.908;2023-03-19T04:14:22;98198.75;;;3.17;52.42
61898;BME280;47850;50.274;18.908;2023-03-19T04:16:50;98195.89;;;3.15;52.52
61898;BME280;47850;50.274;18.908;2023-03-19T04:19:18;98199.40;;;3.13;52.92
61898;BME280;47850;50.274;18.908;2023-03-19T04:21:46;98201.66;;;3.12;53.17
61898;BME280;47850;50.274;18.908;2023-03-19T04:24:15;98201.94;;;3.13;53.63
61898;BME280;47850;50.274;18.908;2023-03-19T04:26:42;98201.45;;;3.14;53.90
61898;BME280;47850;50.274;18.908;2023-03-19T04:29:10;98198.65;;;3.13;54.08
61898;BME280;47850;50.274;18.908;2023-03-19T04:31:38;98201.02;;;3.12;54.31
61898;BME280;47850;50.274;18.908;2023-03-19T04:34:07;98199.29;;;3.12;54.37
61898;BME280;47850;50.274;18.908;2023-03-19T04:36:34;98196.05;;;3.10;54.57
61898;BME280;47850;50.274;18.908;2023-03-19T04:39:03;98193.15;;;3.08;54.64
61898;BME280;47850;50.274;18.908;2023-03-19T04:41:31;98191.15;;;3.06;54.73
61898;BME280;47850;50.274;18.908;2023-03-19T04:43:59;98187.10;;;3.03;54.77
61898;BME280;47850;50.274;18.908;2023-03-19T04:46:28;98189.70;;;3.01;55.18
61898;BME280;47850;50.274;18.908;2023-03-19T04:48:56;98187.48;;;3.00;55.44
61898;BME280;47850;50.274;18.908;2023-03-19T04:51:23;98191.14;;;2.99;55.45
61898;BME280;47850;50.274;18.908;2023-03-19T04:53:51;98185.70;;;2.98;55.50
61898;BME280;47850;50.274;18.908;2023-03-19T04:56:19;98183.86;;;2.97;55.68
61898;BME280;47850;50.274;18.908;2023-03-19T04:58:47;98188.40;;;2.98;55.94
61898;BME280;47850;50.274;18.908;2023-03-19T05:01:15;98191.63;;;2.99;55.93
61898;BME280;47850;50.274;18.908;2023-03-19T05:03:43;98191.48;;;3.01;56.15
61898;BME280;47850;50.274;18.908;2023-03-19T05:06:11;98189.54;;;3.04;56.53
61898;BME280;47850;50.274;18.908;2023-03-19T05:08:39;98192.12;;;3.07;56.68
61898;BME280;47850;50.274;18.908;2023-03-19T05:11:07;98188.58;;;3.09;56.63
61898;BME280;47850;50.274;18.908;2023-03-19T05:13:35;98184.95;;;3.13;56.92
61898;BME280;47850;50.274;18.908;2023-03-19T05:16:03;98186.20;;;3.18;57.03
61898;BME280;47850;50.274;18.908;2023-03-19T05:18:31;98181.50;;;3.22;57.14
61898;BME280;47850;50.274;18.908;2023-03-19T05:21:00;98190.88;;;3.28;57.30
61898;BME280;47850;50.274;18.908;2023-03-19T05:23:28;98188.65;;;3.33;57.31
61898;BME280;47850;50.274;18.908;2023-03-19T05:25:58;98191.35;;;3.39;57.24
61898;BME280;47850;50.274;18.908;2023-03-19T05:28:27;98197.64;;;3.43;57.09
61898;BME280;47850;50.274;18.908;2023-03-19T05:30:55;98197.66;;;3.46;56.76
61898;BME280;47850;50.274;18.908;2023-03-19T05:33:23;98194.40;;;3.49;56.57
61898;BME280;47850;50.274;18.908;2023-03-19T05:35:51;98196.20;;;3.51;56.57
61898;BME280;47850;50.274;18.908;2023-03-19T05:38:19;98192.79;;;3.53;56.93
61898;BME280;47850;50.274;18.908;2023-03-19T05:40:47;98193.73;;;3.55;56.83
61898;BME280;47850;50.274;18.908;2023-03-19T05:43:15;98195.14;;;3.58;56.90
61898;BME280;47850;50.274;18.908;2023-03-19T05:45:49;98197.68;;;3.61;57.20
61898;BME280;47850;50.274;18.908;2023-03-19T05:48:18;98192.55;;;3.64;57.11
61898;BME280;47850;50.274;18.908;2023-03-19T05:50:46;98197.93;;;3.70;57.48
61898;BME280;47850;50.274;18.908;2023-03-19T05:53:14;98202.12;;;3.75;57.66
61898;BME280;47850;50.274;18.908;2023-03-19T05:55:42;98206.91;;;3.79;57.61
61898;BME280;47850;50.274;18.908;2023-03-19T05:58:10;98204.70;;;3.82;57.39
61898;BME280;47850;50.274;18.908;2023-03-19T06:00:38;98202.59;;;3.86;57.18
61898;BME280;47850;50.274;18.908;2023-03-19T06:03:05;98206.39;;;3.89;57.15
61898;BME280;47850;50.274;18.908;2023-03-19T06:05:33;98207.63;;;3.91;56.99
61898;BME280;47850;50.274;18.908;2023-03-19T06:08:01;98202.66;;;3.94;56.83
61898;BME280;47850;50.274;18.908;2023-03-19T06:10:29;98205.98;;;3.98;57.04
61898;BME280;47850;50.274;18.908;2023-03-19T06:12:57;98208.63;;;4.03;57.20
61898;BME280;47850;50.274;18.908;2023-03-19T06:15:25;98209.15;;;4.07;57.03
61898;BME280;47850;50.274;18.908;2023-03-19T06:17:53;98208.05;;;4.13;57.10
61898;BME280;47850;50.274;18.908;2023-03-19T06:20:21;98211.42;;;4.20;57.26
61898;BME280;47850;50.274;18.908;2023-03-19T06:22:49;98213.21;;;4.29;57.23
61898;BME280;47850;50.274;18.908;2023-03-19T06:25:17;98210.68;;;4.40;57.17
61898;BME280;47850;50.274;18.908;2023-03-19T06:27:45;98213.16;;;4.50;57.17
61898;BME280;47850;50.274;18.908;2023-03-19T06:30:13;98210.30;;;4.61;56.99
61898;BME280;47850;50.274;18.908;2023-03-19T06:32:41;98211.41;;;4.74;56.71
61898;BME280;47850;50.274;18.908;2023-03-19T06:35:09;98211.34;;;4.86;56.95
61898;BME280;47850;50.274;18.908;2023-03-19T06:37:37;98218.42;;;4.99;56.36
61898;BME280;47850;50.274;18.908;2023-03-19T06:40:05;98222.21;;;5.14;55.88
61898;BME280;47850;50.274;18.908;2023-03-19T06:42:33;98221.60;;;5.30;55.54
61898;BME280;47850;50.274;18.908;2023-03-19T06:45:01;98220.98;;;5.47;55.52
61898;BME280;47850;50.274;18.908;2023-03-19T06:47:29;98219.67;;;5.64;55.26
61898;BME280;47850;50.274;18.908;2023-03-19T06:49:56;98222.55;;;5.79;54.94
61898;BME280;47850;50.274;18.908;2023-03-19T06:52:25;98218.98;;;5.94;54.50
61898;BME280;47850;50.274;18.908;2023-03-19T06:54:53;98219.05;;;6.07;54.31
61898;BME280;47850;50.274;18.908;2023-03-19T06:57:21;98221.56;;;6.19;54.26
61898;BME280;47850;50.274;18.908;2023-03-19T06:59:49;98217.69;;;6.30;54.13
61898;BME280;47850;50.274;18.908;2023-03-19T07:02:17;98212.42;;;6.39;53.92
61898;BME280;47850;50.274;18.908;2023-03-19T07:04:45;98217.39;;;6.49;53.52
61898;BME280;47850;50.274;18.908;2023-03-19T07:07:13;98219.28;;;6.58;53.47
61898;BME280;47850;50.274;18.908;2023-03-19T07:09:41;98216.19;;;6.67;53.26
61898;BME280;47850;50.274;18.908;2023-03-19T07:12:09;98219.06;;;6.74;53.22
61898;BME280;47850;50.274;18.908;2023-03-19T07:14:38;98225.13;;;6.78;52.66
61898;BME280;47850;50.274;18.908;2023-03-19T07:17:06;98223.52;;;6.80;52.24
61898;BME280;47850;50.274;18.908;2023-03-19T07:19:34;98220.66;;;6.84;52.25
61898;BME280;47850;50.274;18.908;2023-03-19T07:22:02;98221.33;;;6.86;51.71
61898;BME280;47850;50.274;18.908;2023-03-19T07:24:30;98223.16;;;6.87;51.57
61898;BME280;47850;50.274;18.908;2023-03-19T07:26:58;98224.16;;;6.89;51.50
61898;BME280;47850;50.274;18.908;2023-03-19T07:29:25;98225.08;;;6.89;51.50
61898;BME280;47850;50.274;18.908;2023-03-19T07:31:53;98230.79;;;6.92;51.29
61898;BME280;47850;50.274;18.908;2023-03-19T07:34:21;98227.11;;;6.95;51.23
61898;BME280;47850;50.274;18.908;2023-03-19T07:36:49;98227.59;;;6.99;51.29
61898;BME280;47850;50.274;18.908;2023-03-19T07:39:19;98225.71;;;7.05;51.14
61898;BME280;47850;50.274;18.908;2023-03-19T07:41:47;98230.45;;;7.14;51.16
61898;BME280;47850;50.274;18.908;2023-03-19T07:44:15;98229.16;;;7.21;50.95
61898;BME280;47850;50.274;18.908;2023-03-19T07:46:43;98223.84;;;7.28;50.84
61898;BME280;47850;50.274;18.908;2023-03-19T07:49:11;98226.23;;;7.37;50.61
61898;BME280;47850;50.274;18.908;2023-03-19T07:51:39;98224.52;;;7.45;50.56
61898;BME280;47850;50.274;18.908;2023-03-19T07:54:06;98224.08;;;7.53;50.16
61898;BME280;47850;50.274;18.908;2023-03-19T07:56:34;98224.83;;;7.60;49.86
61898;BME280;47850;50.274;18.908;2023-03-19T07:59:02;98228.82;;;7.70;49.86
61898;BME280;47850;50.274;18.908;2023-03-19T08:01:30;98227.40;;;7.83;49.74
61898;BME280;47850;50.274;18.908;2023-03-19T08:03:58;98225.27;;;7.99;49.58
61898;BME280;47850;50.274;18.908;2023-03-19T08:06:26;98224.11;;;8.11;49.08
61898;BME280;47850;50.274;18.908;2023-03-19T08:08:54;98223.89;;;8.22;48.59
61898;BME280;47850;50.274;18.908;2023-03-19T08:11:22;98219.11;;;8.30;48.59
61898;BME280;47850;50.274;18.908;2023-03-19T08:13:50;98219.23;;;8.40;48.56
61898;BME280;47850;50.274;18.908;2023-03-19T08:16:18;98216.70;;;8.48;48.16
61898;BME280;47850;50.274;18.908;2023-03-19T08:18:46;98215.63;;;8.53;48.28
61898;BME280;47850;50.274;18.908;2023-03-19T08:21:13;98213.86;;;8.55;47.89
61898;BME280;47850;50.274;18.908;2023-03-19T08:23:41;98207.41;;;8.59;47.88
61898;BME280;47850;50.274;18.908;2023-03-19T08:26:09;98207.40;;;8.66;47.65
61898;BME280;47850;50.274;18.908;2023-03-19T08:28:37;98206.00;;;8.76;47.67
61898;BME280;47850;50.274;18.908;2023-03-19T08:31:08;98205.16;;;8.87;47.45
61898;BME280;47850;50.274;18.908;2023-03-19T08:33:37;98204.45;;;8.98;47.52
61898;BME280;47850;50.274;18.908;2023-03-19T08:36:10;98205.64;;;9.11;47.19
61898;BME280;47850;50.274;18.908;2023-03-19T08:38:39;98205.79;;;9.22;46.77
61898;BME280;47850;50.274;18.908;2023-03-19T08:41:07;98206.65;;;9.37;46.45
61898;BME280;47850;50.274;18.908;2023-03-19T08:43:36;98210.42;;;9.51;45.45
61898;BME280;47850;50.274;18.908;2023-03-19T08:46:04;98209.11;;;9.64;44.81
61898;BME280;47850;50.274;18.908;2023-03-19T08:48:32;98210.20;;;9.75;44.23
61898;BME280;47850;50.274;18.908;2023-03-19T08:51:02;98206.25;;;9.86;44.03
61898;BME280;47850;50.274;18.908;2023-03-19T08:53:31;98212.29;;;9.98;43.72
61898;BME280;47850;50.274;18.908;2023-03-19T08:56:01;98209.44;;;10.09;43.79
61898;BME280;47850;50.274;18.908;2023-03-19T08:58:30;98204.92;;;10.28;44.00
61898;BME280;47850;50.274;18.908;2023-03-19T09:01:03;98203.98;;;10.51;43.53
61898;BME280;47850;50.274;18.908;2023-03-19T09:03:32;98205.92;;;10.70;43.11
61898;BME280;47850;50.274;18.908;2023-03-19T09:06:01;98208.95;;;10.85;42.30
61898;BME280;47850;50.274;18.908;2023-03-19T09:08:30;98212.38;;;11.02;42.28
61898;BME280;47850;50.274;18.908;2023-03-19T09:10:58;98215.19;;;11.16;41.55
61898;BME280;47850;50.274;18.908;2023-03-19T09:13:26;98217.23;;;11.26;41.19
61898;BME280;47850;50.274;18.908;2023-03-19T09:15:53;98223.34;;;11.29;40.87
61898;BME280;47850;50.274;18.908;2023-03-19T09:18:21;98220.48;;;11.30;40.78
61898;BME280;47850;50.274;18.908;2023-03-19T09:20:52;98220.17;;;11.38;40.91
61898;BME280;47850;50.274;18.908;2023-03-19T09:23:21;98220.84;;;11.44;40.57
61898;BME280;47850;50.274;18.908;2023-03-19T09:25:49;98218.81;;;11.49;40.55
61898;BME280;47850;50.274;18.908;2023-03-19T09:28:18;98219.90;;;11.53;40.51
61898;BME280;47850;50.274;18.908;2023-03-19T09:30:47;98215.48;;;11.59;40.75
61898;BME280;47850;50.274;18.908;2023-03-19T09:33:17;98217.59;;;11.69;40.43
61898;BME280;47850;50.274;18.908;2023-03-19T09:35:50;98220.78;;;11.76;40.40
61898;BME280;47850;50.274;18.908;2023-03-19T09:38:20;98213.14;;;11.89;40.49
61898;BME280;47850;50.274;18.908;2023-03-19T09:41:00;98209.15;;;12.08;39.81
61898;BME280;47850;50.274;18.908;2023-03-19T09:43:47;98209.23;;;12.21;39.39
61898;BME280;47850;50.274;18.908;2023-03-19T09:46:23;98202.92;;;12.32;38.80
61898;BME280;47850;50.274;18.908;2023-03-19T09:49:11;98203.78;;;12.40;38.50
61898;BME280;47850;50.274;18.908;2023-03-19T09:51:57;98203.80;;;12.48;38.59
61898;BME280;47850;50.274;18.908;2023-03-19T09:54:50;98201.79;;;12.61;38.80
61898;BME280;47850;50.274;18.908;2023-03-19T09:57:19;98202.85;;;12.76;38.16
61898;BME280;47850;50.274;18.908;2023-03-19T09:59:47;98201.33;;;12.82;37.99
61898;BME280;47850;50.274;18.908;2023-03-19T10:02:36;98201.50;;;12.89;37.77
61898;BME280;47850;50.274;18.908;2023-03-19T10:11:13;98196.25;;;13.45;37.45
61898;BME280;47850;50.274;18.908;2023-03-19T10:16:32;98186.73;;;13.87;36.87
61898;BME280;47850;50.274;18.908;2023-03-19T10:19:03;98190.84;;;13.96;36.60
61898;BME280;47850;50.274;18.908;2023-03-19T10:26:42;98181.76;;;14.10;36.02
61898;BME280;47850;50.274;18.908;2023-03-19T10:29:17;98184.61;;;14.14;35.59
61898;BME280;47850;50.274;18.908;2023-03-19T10:31:52;98178.14;;;14.23;35.77
61898;BME280;47850;50.274;18.908;2023-03-19T10:34:34;98173.34;;;14.42;35.94
61898;BME280;47850;50.274;18.908;2023-03-19T10:37:05;98169.97;;;14.60;35.32
61898;BME280;47850;50.274;18.908;2023-03-19T10:39:35;98172.30;;;14.60;35.11
61898;BME280;47850;50.274;18.908;2023-03-19T10:44:46;98172.00;;;14.47;34.24
61898;BME280;47850;50.274;18.908;2023-03-19T10:47:17;98164.80;;;14.40;34.89
61898;BME280;47850;50.274;18.908;2023-03-19T10:49:48;98162.13;;;14.42;34.76
61898;BME280;47850;50.274;18.908;2023-03-19T10:52:36;98158.61;;;14.40;34.32
61898;BME280;47850;50.274;18.908;2023-03-19T10:55:16;98158.07;;;14.32;34.46
61898;BME280;47850;50.274;18.908;2023-03-19T10:57:48;98152.22;;;14.23;35.18
61898;BME280;47850;50.274;18.908;2023-03-19T11:00:22;98156.38;;;14.17;35.04
61898;BME280;47850;50.274;18.908;2023-03-19T11:02:53;98151.16;;;14.27;35.38
61898;BME280;47850;50.274;18.908;2023-03-19T11:05:27;98144.16;;;14.47;35.06
61898;BME280;47850;50.274;18.908;2023-03-19T11:07:58;98138.63;;;14.63;34.75
61898;BME280;47850;50.274;18.908;2023-03-19T11:10:29;98134.42;;;14.78;34.90
61898;BME280;47850;50.274;18.908;2023-03-19T11:13:11;98128.67;;;15.01;34.72
61898;BME280;47850;50.274;18.908;2023-03-19T11:15:46;98132.02;;;15.27;34.37
61898;BME280;47850;50.274;18.908;2023-03-19T11:18:26;98124.45;;;15.47;34.22
61898;BME280;47850;50.274;18.908;2023-03-19T11:23:27;98115.15;;;15.80;33.67
61898;BME280;47850;50.274;18.908;2023-03-19T11:25:59;98114.21;;;15.89;33.28
61898;BME280;47850;50.274;18.908;2023-03-19T11:28:30;98115.63;;;16.02;33.31
61898;BME280;47850;50.274;18.908;2023-03-19T11:31:22;98105.73;;;16.30;32.78
61898;BME280;47850;50.274;18.908;2023-03-19T11:42:47;98091.25;;;17.63;30.22
61898;BME280;47850;50.274;18.908;2023-03-19T11:45:31;98081.16;;;17.79;30.46
61898;BME280;47850;50.274;18.908;2023-03-19T11:48:17;98081.41;;;18.25;30.11
61898;BME280;47850;50.274;18.908;2023-03-19T11:53:31;98084.83;;;18.89;28.86
61898;BME280;47850;50.274;18.908;2023-03-19T11:56:30;98077.69;;;19.06;27.08
61898;BME280;47850;50.274;18.908;2023-03-19T11:59:16;98072.77;;;19.27;27.33
61898;BME280;47850;50.274;18.908;2023-03-19T12:02:19;98069.73;;;19.59;27.69
61898;BME280;47850;50.274;18.908;2023-03-19T12:07:41;98064.76;;;20.21;27.04
61898;BME280;47850;50.274;18.908;2023-03-19T12:10:28;98065.48;;;20.38;26.85
61898;BME280;47850;50.274;18.908;2023-03-19T12:16:12;98066.41;;;20.49;26.00
61898;BME280;47850;50.274;18.908;2023-03-19T12:24:18;98056.55;;;21.31;25.44
61898;BME280;47850;50.274;18.908;2023-03-19T12:27:17;98052.52;;;21.30;24.97
61898;BME280;47850;50.274;18.908;2023-03-19T12:30:12;98052.75;;;21.31;24.53
61898;BME280;47850;50.274;18.908;2023-03-19T12:35:28;98044.21;;;21.70;24.67
61898;BME280;47850;50.274;18.908;2023-03-19T12:41:05;98045.36;;;22.16;23.54
61898;BME280;47850;50.274;18.908;2023-03-19T12:44:03;98044.45;;;22.25;23.23
61898;BME280;47850;50.274;18.908;2023-03-19T12:49:06;98041.65;;;22.34;23.28
61898;BME280;47850;50.274;18.908;2023-03-19T12:51:41;98037.93;;;22.39;23.27
61898;BME280;47850;50.274;18.908;2023-03-19T12:54:17;98034.56;;;22.70;23.34
61898;BME280;47850;50.274;18.908;2023-03-19T12:59:36;98026.65;;;22.92;23.38
61898;BME280;47850;50.274;18.908;2023-03-19T13:02:29;98025.52;;;23.37;23.10
61898;BME280;47850;50.274;18.908;2023-03-19T13:08:10;98038.34;;;24.46;22.29
61898;BME280;47850;50.274;18.908;2023-03-19T13:10:43;98033.40;;;24.66;21.21
61898;BME280;47850;50.274;18.908;2023-03-19T13:13:30;98033.90;;;24.90;21.31
61898;BME280;47850;50.274;18.908;2023-03-19T13:21:50;98033.75;;;24.65;20.64
61898;BME280;47850;50.274;18.908;2023-03-19T13:24:29;98035.13;;;24.62;20.88
61898;BME280;47850;50.274;18.908;2023-03-19T13:26:59;98041.29;;;24.67;20.56
61898;BME280;47850;50.274;18.908;2023-03-19T13:29:30;98041.50;;;24.54;20.80
61898;BME280;47850;50.274;18.908;2023-03-19T13:32:05;98035.37;;;24.93;21.05
61898;BME280;47850;50.274;18.908;2023-03-19T13:34:36;98039.33;;;25.07;20.13
61898;BME280;47850;50.274;18.908;2023-03-19T13:37:21;98036.26;;;24.68;20.17
61898;BME280;47850;50.274;18.908;2023-03-19T13:39:50;98032.03;;;24.68;20.45
61898;BME280;47850;50.274;18.908;2023-03-19T13:42:38;98026.94;;;24.92;20.14
61898;BME280;47850;50.274;18.908;2023-03-19T13:45:35;98027.77;;;25.29;19.81
61898;BME280;47850;50.274;18.908;2023-03-19T13:48:33;98019.14;;;25.56;19.71
61898;BME280;47850;50.274;18.908;2023-03-19T13:51:08;98018.77;;;26.06;19.89
61898;BME280;47850;50.274;18.908;2023-03-19T13:59:35;98011.27;;;26.35;18.95
61898;BME280;47850;50.274;18.908;2023-03-19T14:05:15;97996.21;;;26.21;19.04
61898;BME280;47850;50.274;18.908;2023-03-19T14:07:47;97992.86;;;25.98;19.29
61898;BME280;47850;50.274;18.908;2023-03-19T14:10:36;97993.99;;;25.85;19.67
61898;BME280;47850;50.274;18.908;2023-03-19T14:13:24;97994.63;;;25.72;19.61
61898;BME280;47850;50.274;18.908;2023-03-19T14:16:00;97989.58;;;25.55;19.87
61898;BME280;47850;50.274;18.908;2023-03-19T14:18:31;97990.86;;;25.08;20.00
61898;BME280;47850;50.274;18.908;2023-03-19T14:21:03;97987.29;;;24.53;20.46
61898;BME280;47850;50.274;18.908;2023-03-19T14:23:32;97981.20;;;23.93;20.95
61898;BME280;47850;50.274;18.908;2023-03-19T14:26:18;97982.58;;;23.64;21.55
61898;BME280;47850;50.274;18.908;2023-03-19T14:29:05;97982.70;;;23.43;21.43